Latest Weather Observations for Delamere

IDD60801

Issued at 10:31 pm CST Sunday 1 February 2015 (issued every 30 minutes, with the page automatically refreshed every 10 minutes)

About weather observations | Map of weather stations | Latest weather observations for NT | Other Formats
Station Details ID: 014949 Name: DELAMERE WEAPONS RANGE Lat: -15.74 Lon: 131.92 Height: 221.0 m
Data from the previous 72 hours. | See also: Recent months at Delamere
Date/Time
CST
Temp
°C
App
Temp
°C
Dew
Point
Rel
Hum
%
Delta-T
°C
Wind Press
QNH
hPa
Press
MSL
hPa
Rain
since 9 am
mm
Dir
 
Spd
km/h
Gust
km/h
Spd
kts
Gust
kts
01/10:30pm 28.6 32.7 23.3 73 3.7 NW 7 11 4 6 1008.3 - 0.0
01/10:00pm 29.2 33.0 22.7 68 4.5 NW 7 9 4 5 1008.3 - 0.0
01/09:30pm 29.7 33.7 22.7 66 4.8 NNW 6 6 3 3 1008.1 - 0.0
01/09:00pm 30.1 34.0 22.5 63 5.2 NW 6 7 3 4 1007.8 1006.1 0.0
01/08:30pm 30.6 35.6 22.5 62 5.6 CALM 0 0 0 0 1007.5 - 0.0
01/08:00pm 30.9 34.2 22.5 61 5.8 NNW 9 11 5 6 1007.2 - 0.0
01/07:30pm 32.0 35.2 23.0 59 6.2 N 11 17 6 9 1006.8 - 0.0
01/07:00pm 34.2 39.3 22.6 50 8.1 CALM 0 0 0 0 1006.4 - 0.0
01/06:30pm 34.6 37.8 21.6 46 8.9 ESE 7 17 4 9 1006.1 - 0.0
01/06:00pm 35.7 39.4 22.6 46 9.1 W 7 11 4 6 1005.5 1003.8 0.0
01/05:30pm 35.4 39.6 24.7 54 7.6 W 11 17 6 9 1005.4 - 0.0
01/05:00pm 34.8 38.1 23.2 51 8.1 WSW 11 17 6 9 1005.0 - 0.0
01/04:30pm 32.9 35.8 23.2 56 6.8 WSW 13 20 7 11 1005.3 - 0.0
01/04:00pm 35.3 38.8 24.9 55 7.4 W 15 22 8 12 1005.6 - 0.0
01/03:30pm 34.0 37.5 20.4 45 9.2 W 2 7 1 4 1005.8 - 0.0
01/03:00pm 32.0 30.5 20.3 50 7.8 SE 28 37 15 20 1006.3 1004.6 0.0
01/02:59pm 32.3 30.6 20.5 49 7.9 SE 30 37 16 20 1006.2 - 0.0
01/02:30pm 35.4 38.1 21.3 44 9.6 SW 9 19 5 10 1006.4 - 0.0
01/02:00pm 35.6 39.7 24.5 52 7.9 S 11 22 6 12 1006.7 - 0.0
01/01:30pm 35.2 39.1 24.2 53 7.8 SW 11 20 6 11 1007.0 - 0.0
01/01:00pm 35.1 38.9 24.7 55 7.4 WSW 13 24 7 13 1007.3 - 0.0
01/12:30pm 34.3 38.7 25.7 61 6.2 W 13 22 7 12 1007.9 - 0.0
01/12:00pm 33.6 36.9 24.5 59 6.5 W 15 22 8 12 1008.5 1006.9 0.0
01/11:30am 33.0 36.0 24.7 61 5.9 SW 17 24 9 13 1008.8 - 0.0
01/11:00am 32.4 35.1 24.2 62 5.8 SW 17 24 9 13 1009.0 - 0.0
01/10:30am 31.9 35.4 25.5 69 4.6 SW 17 24 9 13 1009.1 - 0.0
01/10:00am 31.3 34.3 24.7 68 4.7 WSW 17 24 9 13 1009.1 - 0.0
01/09:30am 31.0 35.0 25.6 73 3.9 WSW 15 22 8 12 1009.1 - 0.0
01/09:00am 30.3 33.7 24.7 72 4.0 WSW 15 26 8 14 1009.1 1007.5 0.0
01/08:30am 29.4 34.0 25.4 79 2.8 W 11 19 6 10 1008.9 - 0.0
01/08:00am 27.8 31.7 24.8 84 2.1 W 13 19 7 10 1008.6 - 0.0
01/07:30am 26.9 32.0 24.9 89 1.4 W 7 11 4 6 1008.4 - 0.0
01/07:00am 25.6 30.9 24.9 96 0.5 W 6 9 3 5 1008.1 - 0.0
01/06:30am 25.1 30.1 24.8 98 0.2 W 7 9 4 5 1007.5 - 0.0
01/06:00am 25.3 30.2 24.6 96 0.5 W 7 9 4 5 1007.2 1005.5 0.0
01/05:30am 25.3 30.2 24.6 96 0.5 W 7 9 4 5 1007.2 - 0.0
01/05:00am 25.4 30.2 24.4 94 0.7 W 7 9 4 5 1006.9 - 0.0
01/04:30am 25.5 30.6 24.6 95 0.6 W 6 7 3 4 1006.7 - 0.0
01/04:00am 25.6 30.7 24.7 95 0.6 W 6 7 3 4 1006.6 - 0.0
01/03:30am 26.2 31.1 24.4 90 1.3 WNW 6 7 3 4 1006.7 - 0.0
01/03:00am 26.6 31.7 25.0 91 1.1 WNW 7 9 4 5 1007.0 1005.3 0.0
01/02:30am 26.9 32.0 24.7 88 1.5 WNW 6 7 3 4 1007.1 - 0.0
01/02:00am 27.0 32.1 24.6 87 1.7 NW 6 7 3 4 1007.2 - 0.0
01/01:30am 27.0 33.2 24.6 87 1.7 CALM 0 0 0 0 1007.4 - 0.0
01/01:00am 27.2 33.9 25.4 90 1.3 CALM 0 0 0 0 1007.6 - 0.0
01/12:30am 27.5 32.7 25.1 87 1.7 NNE 7 9 4 5 1008.0 - 0.0
01/12:00am 27.9 34.0 24.5 82 2.4 CALM 0 0 0 0 1008.2 1006.5 0.0
 
Date/Time
CST
Temp
°C
App
Temp
°C
Dew
Point
Rel
Hum
%
Delta-T
°C
Wind Press
QNH
hPa
Press
MSL
hPa
Rain
since 9 am
mm
Dir
 
Spd
km/h
Gust
km/h
Spd
kts
Gust
kts
31/11:30pm 28.3 34.6 24.7 81 2.5 CALM 0 0 0 0 1008.3 - 0.0
31/11:00pm 28.8 35.8 25.8 84 2.1 CALM 0 0 0 0 1008.2 - 0.0
31/10:30pm 28.9 34.5 23.6 73 3.7 CALM 0 0 0 0 1008.2 - 0.0
31/10:00pm 29.2 35.1 24.1 74 3.6 CALM 0 0 0 0 1008.0 - 0.0
31/09:30pm 29.6 35.0 23.3 69 4.4 CALM 0 0 0 0 1007.7 - 0.0
31/09:00pm 29.7 33.9 23.2 68 4.5 NNW 6 7 3 4 1007.7 1006.0 0.0
31/08:30pm 30.5 36.0 23.4 66 4.9 CALM 0 0 0 0 1007.3 - 0.0
31/08:00pm 31.4 35.4 22.1 57 6.4 S 4 6 2 3 1006.8 - 0.0
31/07:30pm 31.9 34.9 22.0 55 6.8 SSE 9 13 5 7 1006.3 - 0.0
31/07:00pm 33.9 38.1 21.0 47 8.8 CALM 0 6 0 3 1006.0 - 0.0
31/06:30pm 34.6 37.4 20.9 44 9.3 SSW 7 9 4 5 1005.8 - 0.0
31/06:00pm 35.1 38.2 21.0 43 9.6 W 6 9 3 5 1005.6 1003.9 0.0
31/05:30pm 35.3 38.3 21.9 45 9.2 WSW 9 13 5 7 1005.4 - 0.0
31/05:00pm 34.9 36.9 21.5 45 9.2 SW 13 19 7 10 1005.4 - 0.0
31/04:30pm 35.0 37.3 21.3 45 9.4 SW 11 20 6 11 1005.3 - 0.0
31/04:00pm 34.5 36.5 20.8 44 9.3 WNW 11 19 6 10 1005.7 - 0.0
31/03:30pm 35.2 38.0 21.5 45 9.4 W 9 17 5 9 1006.2 - 0.0
31/03:00pm 35.2 38.3 22.2 47 9.0 WSW 9 17 5 9 1006.6 1004.9 0.0
31/02:30pm 33.2 35.1 21.4 50 8.0 WSW 13 19 7 10 1006.9 - 0.0
31/02:00pm 32.9 35.5 22.0 52 7.5 W 11 17 6 9 1007.3 - 0.0
31/01:30pm 33.3 37.1 22.7 53 7.3 W 7 24 4 13 1007.6 - 0.0
31/01:00pm 33.0 37.0 25.0 63 5.7 W 13 22 7 12 1007.8 - 0.0
31/12:30pm 32.3 36.1 24.1 62 5.8 W 11 20 6 11 1008.3 - 0.0
31/12:00pm 31.3 34.0 23.4 63 5.5 WNW 15 24 8 13 1008.7 1007.1 0.0
31/11:30am 30.4 33.2 23.6 67 4.7 W 15 20 8 11 1009.2 - 0.0
31/11:00am 30.1 33.1 24.0 70 4.3 W 15 24 8 13 1009.5 - 0.0
31/10:30am 29.5 31.7 23.2 69 4.4 W 17 26 9 14 1009.7 - 0.0
31/10:00am 29.7 32.5 23.6 69 4.2 W 15 24 8 13 1009.2 - 0.0
31/09:30am 29.1 32.1 23.3 71 4.0 W 13 20 7 11 1009.0 - 0.0
31/09:00am 27.9 31.5 23.7 78 2.9 WSW 11 17 6 9 1008.8 1007.2 0.0
31/08:30am 26.2 30.4 23.5 85 1.9 W 7 13 4 7 1009.0 - 0.0
31/08:00am 24.9 28.7 23.5 92 1.0 WNW 9 11 5 6 1008.7 - 0.0
31/07:30am 24.3 27.9 23.1 93 0.8 WNW 9 15 5 8 1008.4 - 0.0
31/07:00am 23.8 29.2 23.3 97 0.3 CALM 0 0 0 0 1008.0 - 0.0
31/06:30am 23.3 28.6 23.1 99 0.1 CALM 0 0 0 0 1007.7 - 0.0
31/06:00am 23.4 28.4 23.2 99 0.1 W 2 6 1 3 1007.4 1005.7 0.0
31/05:30am 23.3 27.5 23.1 99 0.1 W 6 7 3 4 1007.4 - 0.0
31/05:00am 23.4 27.6 23.1 98 0.2 WSW 6 7 3 4 1007.3 - 0.0
31/04:30am 23.6 28.5 23.1 97 0.3 W 2 7 1 4 1007.4 - 0.0
31/04:00am 23.7 28.3 23.2 97 0.3 W 4 7 2 4 1007.5 - 0.0
31/03:30am 23.8 28.1 23.3 97 0.3 W 6 7 3 4 1007.7 - 0.0
31/03:00am 23.9 28.1 23.2 96 0.5 W 6 7 3 4 1007.8 1006.1 0.0
31/02:30am 24.1 29.5 23.2 95 0.6 CALM 0 0 0 0 1008.1 - 0.0
31/02:00am 24.6 30.0 23.2 92 1.0 CALM 0 4 0 2 1008.3 - 0.0
31/01:30am 24.8 30.2 23.2 91 1.1 CALM 0 6 0 3 1008.4 - 0.0
31/01:00am 24.9 28.9 23.1 90 1.2 NNW 7 11 4 6 1008.7 - 0.0
31/12:30am 25.1 29.0 23.0 88 1.4 NW 7 11 4 6 1009.0 - 0.0
31/12:00am 25.4 28.5 22.9 86 1.7 NNW 11 15 6 8 1009.2 1007.6 0.0
 
Date/Time
CST
Temp
°C
App
Temp
°C
Dew
Point
Rel
Hum
%
Delta-T
°C
Wind Press
QNH
hPa
Press
MSL
hPa
Rain
since 9 am
mm
Dir
 
Spd
km/h
Gust
km/h
Spd
kts
Gust
kts
30/11:30pm 25.8 27.9 22.5 82 2.2 N 15 20 8 11 1009.1 - 0.0
30/11:00pm 26.1 28.8 22.8 82 2.3 N 13 20 7 11 1009.4 - 0.0
30/10:30pm 25.8 28.7 23.1 85 1.8 NNW 13 17 7 9 1009.1 - 0.0
30/10:00pm 25.7 28.8 22.8 84 2.0 NNW 11 13 6 7 1009.0 - 0.0
30/09:30pm 26.1 28.4 22.8 82 2.3 NNW 15 20 8 11 1008.6 - 0.0
30/09:00pm 26.0 29.2 23.1 84 2.0 NNW 11 13 6 7 1008.0 1006.3 0.0
30/08:30pm 26.1 29.2 22.8 82 2.3 WNW 11 17 6 9 1007.8 - 0.0
30/08:00pm 26.4 28.5 22.5 79 2.7 W 15 24 8 13 1007.4 - 0.0
30/07:30pm 26.1 27.7 22.8 82 2.3 WNW 19 28 10 15 1007.2 - 0.0
30/07:00pm 27.4 27.9 21.9 72 3.7 WNW 22 44 12 24 1006.6 - 0.0
30/06:30pm 29.7 32.7 21.9 63 5.3 WNW 9 13 5 7 1005.4 - 0.0
30/06:00pm 29.9 33.8 23.6 69 4.4 W 9 13 5 7 1005.3 1003.6 0.0
30/05:30pm 30.8 32.3 21.3 57 6.4 WNW 15 20 8 11 1004.7 - 0.0
30/05:11pm 30.5 28.8 19.8 52 7.1 NW 28 46 15 25 1004.4 - 0.0
30/05:10pm 30.3 28.0 20.2 54 6.7 NW 32 46 17 25 1004.3 - 0.0
30/05:00pm 33.0 33.0 20.2 47 8.6 S 20 28 11 15 1004.3 - 0.0
30/04:30pm 35.5 36.7 19.0 37 11.0 NE 11 17 6 9 1004.3 - 0.0
30/04:00pm 36.0 38.3 20.7 41 10.4 SW 9 15 5 8 1004.3 - 0.0
30/03:30pm 35.2 37.0 19.6 40 10.4 SSE 9 15 5 8 1004.6 - 0.0
30/03:00pm 35.1 37.6 20.2 41 10.1 W 7 17 4 9 1005.1 1003.4 0.0
30/02:30pm 35.2 36.4 19.9 40 10.3 SSW 13 20 7 11 1005.6 - 0.0
30/02:00pm 34.4 35.5 19.6 41 9.9 WSW 13 24 7 13 1006.2 - 0.0
30/01:30pm 34.4 36.9 21.1 45 9.1 WNW 9 15 5 8 1006.7 - 0.0
30/01:00pm 33.6 35.1 19.7 44 9.3 S 11 17 6 9 1007.1 - 0.0
30/12:30pm 33.6 36.5 21.1 48 8.5 WNW 7 11 4 6 1007.5 - 0.0
30/12:00pm 32.8 36.3 22.9 56 6.9 W 9 17 5 9 1007.7 1006.0 0.0
30/11:30am 32.1 35.2 22.8 58 6.4 SW 11 17 6 9 1007.9 - 0.0
30/11:00am 31.5 34.0 22.5 59 6.2 WSW 13 20 7 11 1008.2 - 0.0
30/10:30am 30.7 33.8 22.8 62 5.4 WSW 11 17 6 9 1008.3 - 0.0
30/10:00am 30.8 34.2 24.0 67 4.8 SW 13 19 7 10 1008.4 - 0.0
30/09:30am 29.9 33.4 22.9 66 4.8 WSW 9 17 5 9 1008.6 - 0.0
30/09:00am 29.0 31.8 23.0 70 4.1 W 13 19 7 10 1008.6 1007.0 0.0
30/08:30am 27.9 31.0 22.8 74 3.5 W 11 15 6 8 1008.5 - 0.0
30/08:00am 26.8 30.1 22.6 78 2.9 WNW 9 11 5 6 1008.5 - 0.0
30/07:30am 25.6 28.9 22.5 83 2.1 WNW 9 11 5 6 1008.4 - 0.0
30/07:00am 24.6 27.4 21.5 83 2.1 NW 9 11 5 6 1008.0 - 0.0
30/06:30am 24.4 27.2 20.9 81 2.3 NW 7 9 4 5 1007.7 - 0.0
30/06:00am 24.5 27.2 20.6 79 2.6 NW 7 11 4 6 1007.3 1005.6 0.0
30/05:30am 24.4 28.5 23.2 93 0.8 NW 7 11 4 6 1007.2 - 0.0
30/05:00am 24.3 29.6 23.1 93 0.8 CALM 0 6 0 3 1007.0 - 0.0
30/04:30am 24.7 30.3 23.5 93 0.8 CALM 0 0 0 0 1006.8 - 0.0
30/04:00am 25.0 29.0 22.7 87 1.6 NNW 6 9 3 5 1006.8 - 0.0
30/03:30am 24.7 28.4 23.3 92 1.0 NW 9 11 5 6 1006.9 - 0.0
30/03:00am 25.5 30.9 23.2 87 1.6 CALM 0 0 0 0 1006.9 1005.2 0.0
30/02:30am 25.8 30.2 23.5 87 1.6 NE 6 6 3 3 1006.8 - 0.0
30/02:00am 26.2 30.2 23.1 83 2.1 NNE 7 7 4 4 1007.1 - 0.0
30/01:30am 26.2 30.6 23.5 85 1.9 NE 6 7 3 4 1007.4 - 0.0
30/01:00am 26.5 31.8 24.3 88 1.5 NE 4 6 2 3 1007.7 - 0.0
30/12:30am 27.0 31.0 22.8 78 2.9 E 6 7 3 4 1007.8 - 0.0
30/12:00am 27.2 31.1 22.6 76 3.1 E 6 13 3 7 1007.9 1006.2 0.0
 
Date/Time
CST
Temp
°C
App
Temp
°C
Dew
Point
Rel
Hum
%
Delta-T
°C
Wind Press
QNH
hPa
Press
MSL
hPa
Rain
since 9 am
mm
Dir
 
Spd
km/h
Gust
km/h
Spd
kts
Gust
kts
29/11:30pm 27.3 33.0 23.7 81 2.5 CALM 0 0 0 0 1008.0 - 0.0
29/11:00pm 27.5 32.9 23.3 78 2.9 CALM 0 0 0 0 1008.2 - 0.0

Other Formats:

Comma delimited format used in spreadsheet applications
http://www.bom.gov.au/fwo/IDD60801/IDD60801.94225.axf

JavaScript Object Notation format (JSON) in row-major order
http://www.bom.gov.au/fwo/IDD60801/IDD60801.94225.json